Crossville, TN

4:26 AM CST on January 30, 2015 (GMT -0600)
Upper Cumberland Regional | Change Station
CLOSE
Current Station
Airport
Location: Sparta,
Elevation: 1024 ft
Nearby Weather Stations
Active Advisory: Special Statement

Elev 1024 ft 36.05 °N, 85.54 °W | Updated 11 minutes ago

Overcast
Overcast
36 °F
Feels Like 30 °F
N
7
Wind Variable Wind from NNW

Today
High -- | Low -- °F
--% Chance of Precip.
Yesterday
High -- | Low -- °F
Precip. -- in
6:42 AM 5:04 PM
Waxing Gibbous, 81% visible
Pressure 30.31 in
Visibility 10.0 miles
Clouds Mostly Cloudy 3500 ft
Windchill 30 °F
Dew Point 28 °F
Humidity 75%
Rainfall 0.00 in
Snow Depth Not available.
UV 0 out of 12
Pollen .40 out of 12
Air Quality Not available.
Flu Activity Not available.
METAR KSRB 301015Z AUTO 33006KT 10SM BKN035 02/M02 A3031 RMK

More Conditions Fewer Conditions

Pressure 30.31 in
Visibility 10.0 miles
Clouds Mostly Cloudy 3500 ft
Windchill 30 °F
Dew Point 28 °F
Humidity 75%
Rainfall 0.00 in
Snow Depth Not available.
UV 0 out of 12
Pollen .40 out of 12
Air Quality Not available.
Flu Activity Not available.
METAR KSRB 301015Z AUTO 33006KT 10SM BKN035 02/M02 A3031 RMK

More Conditions Fewer Conditions

10-Day Weather Forecast

Almanac

Astronomy

Jan. 30, 2015 Rise Set
Actual Time
Civil Twilight
Nautical Twilight
Astronomical Twilight
Moon
Length of Visible Light
Length of Day
Tomorrow will be .
, % of the Moon is Illuminated

Today's Extremes

State Highs State Lows

Community

WunderPhotos

Upload Photos

1,791,736 photos uploaded!

WunderBlogs® & News

Nearby

Air Quality

  Air Quality AQ Index Pollutant
Not available.

Snow Depth

Station Depth Elevation

Earthquake Activity

City Distance Mag. Time & Date
Minimum magnitude displayed is 2.5.

Coastal Water Temperatures

Place Temperature

Nearby Weather Stations